Bayfield, CO

10:45 PM MDT on August 28, 2014 (GMT -0600)
Wolf Creek Pass | Change Station
CLOSE
Current Station
Airport
Location: Wolf Creek Pass,
Elevation: 11759 ft
Nearby Weather Stations

Elev 11759 ft 37.45 °N, 106.80 °W | Updated 7 minutes ago

Clear
Clear
37 °F
Feels Like 27 °F
N
20
Wind Variable Wind from NNE

Today
High -- | Low -- °F
--% Chance of Precip.
Yesterday
High -- | Low -- °F
Precip. -- in
6:37 AM 7:44 PM
Waxing Crescent, 12% visible
Pressure 30.55 in
Visibility 10.0 miles
Clouds Clear
Windchill 27 °F
Dew Point 32 °F
Humidity 81%
Rainfall 0.00 in
Snow Depth 0 in , 1 in
UV 0 out of 12
Pollen 8.80 out of 12
Air Quality Not available.
Flu Activity Not available.
METAR KCPW 290438Z AUTO 02017KT 10SM CLR 03/00 A3055 RMK AO2

More Conditions Fewer Conditions

Pressure 30.55 in
Visibility 10.0 miles
Clouds Clear
Windchill 27 °F
Dew Point 32 °F
Humidity 81%
Rainfall 0.00 in
Snow Depth 0 in , 1 in
UV 0 out of 12
Pollen 8.80 out of 12
Air Quality Not available.
Flu Activity Not available.
METAR KCPW 290438Z AUTO 02017KT 10SM CLR 03/00 A3055 RMK AO2

More Conditions Fewer Conditions

10-Day Weather Forecast

Almanac

Astronomy

Aug. 28, 2014 Rise Set
Actual Time 6:37 AM MDT 7:44 PM MDT
Civil Twilight 6:10 AM MDT 8:11 PM MDT
Nautical Twilight 5:38 AM MDT 8:43 PM MDT
Astronomical Twilight 5:05 AM MDT 9:16 PM MDT
Moon 9:28 AM MDT (8/28) 9:15 PM MDT (8/28)
Length of Visible Light 14h 00m
Length of Day
13h 07m
Tomorrow will be 2m 16s shorter.
Waxing Crescent, 12% of the Moon is Illuminated
Aug 29
Waxing Crescent
Sep 2
First Quarter
Sep 8
Full
Sep 15
Last Quarter
Sep 24
New

Yesterday's Extremes

State Highs State Lows

Community

WunderPhotos

Upload Photos

1,748,186 photos uploaded!

Nearby

Snow Depth

Station Depth Elevation
Stump Lakes 0 in 11200 ft
Vallecito 1 in 10880 ft
Columbus Basin 0 in 10785 ft
Cascade 0 in 8880 ft
Cascade #2 0 in 8920 ft

Earthquake Activity

City Distance Mag. Time & Date
No recent earthquake activity has been reported nearby.
Minimum magnitude displayed is 2.5.

Coastal Water Temperatures

Place Temperature
No Stations Reporting

Nearby Weather Stations